Go Pro

SiteOne Landscape Supply (SITE) Institutional Ownership

SiteOne Landscape Supply logo
$98.40 +0.93 (+0.96%)
Closing price 03:59 PM Eastern
Extended Trading
$98.29 -0.11 (-0.12%)
As of 07:30 PM Eastern
Extended trading is trading that happens on electronic markets outside of regular trading hours. This is a fair market value extended hours price provided by Massive. Learn more.

Institutional Ownership Changes (13F Filings) for SiteOne Landscape Supply (NYSE:SITE)

Number of
Institutional Buyers
(last 12 months)
219
Total
Institutional Inflows
(last 12 months)
$2.56B
Number of
Institutional Sellers
(last 12 months)
163
Total
Institutional Outflows
(last 12 months)
$981.42M
Get SITE Insider Trade Alerts

Want to know when executives and insiders are buying or selling SiteOne Landscape Supply stock? Sign up for InsiderTrades.com's daily newsletter to get the latest insider transactions delivered to your inbox daily.

SMS is currently available in Australia, Belgium, Canada, France, Germany, Ireland, Italy, New Zealand, the Netherlands, Singapore, South Africa, Spain, Switzerland, the United Kingdom, and the United States. By entering your phone number and clicking the sign-up button, you agree to receive periodic text messages from MarketBeat at the phone number you submitted, including texts that may be sent using an automatic telephone dialing system. Message and data rates may apply. Message frequency will vary. Messages will consist of stock alerts, news stories, and partner advertisements/offers. Consent is not a condition of the purchase of any goods or services. Text HELP for help/customer support. Unsubscribe at any time by replying "STOP" to any text message that you receive from MarketBeat or by visiting our mailing preferences page. Read our full terms of service and privacy policy.
Skip Chart & View Institutional Buying and Selling Data

SITE Institutional Buying and Selling by Quarter

SiteOne Landscape Supply Major Shareholders & Ownership History

Reporting DateMajor Shareholder NameShares HeldMarket Value% of PortfolioQuarterly Change in SharesOwnership in CompanyDetails
8/27/2026 Corient Private Wealth LP30,936$3.54M0.0%+207.9%0.071%
8/26/2026 Amundi1,048,747$120.04M0.0%+49.0%2.403%
8/26/2026 HighTower Advisors LLC4,056$464K0.0%-31.9%0.009%
8/25/2026 VIRGINIA RETIREMENT SYSTEMS ET Al18,000$2.06M0.0%N/A0.041%
8/24/2026 California State Teachers Retirement System5,861,568$670.62M0.0%+11,170.3%13.427%
8/23/2026 HB Wealth Management LLC2,840$325K0.0%-46.4%0.007%
8/22/2026 AlphaGrep UK Ltd1,958$224K0.1%N/A0.004%
8/21/2026 Nykredit A S2,375$272K0.0%N/A0.005%
8/21/2026 B. Metzler seel. Sohn & Co. AG29,225$3.34M0.0%-24.7%0.067%
8/20/2026 Northwestern Mutual Wealth Management Co.2,185$250K0.0%+694.5%0.005%
8/18/2026 Empowered Funds LLC17,001$1.95M0.0%N/A0.039%
8/18/2026 Public Employees Retirement System of Ohio13,134$1.50M0.0%N/A0.030%
8/17/2026 Corient Private Wealth LP30,610$3.50M0.0%N/A0.070%
8/17/2026 Bamco Inc. NY2,028,799$232.12M0.3%N/A4.648%
8/17/2026 Bank of America Corp DE428,517$49.03M0.0%N/A0.982%
8/15/2026 Man Group plc115,803$13.25M0.0%N/A0.265%
8/15/2026 Jupiter Topco LLC520,229$59.52M0.0%N/A1.192%
8/15/2026 Kinetic Partners Management LP146,101$16.72M0.4%N/A0.335%
8/14/2026 Hsbc Holdings PLC2,008$230K0.0%N/A0.005%
8/14/2026 EFG International AG28,793$3.30M0.1%N/A0.066%
8/14/2026 Canada Pension Plan Investment Board82,400$9.43M0.0%N/A0.189%
8/14/2026 Legal & General Group Plc37,419$4.28M0.0%N/A0.086%
8/14/2026 The Manufacturers Life Insurance Company 13,222$1.51M0.0%N/A0.030%
8/14/2026 Sone Capital Management LLC9,919$1.14M0.1%N/A0.023%
8/13/2026 Hill City Capital LP2,900$331.79K0.0%N/A0.007%
8/13/2026 Cibc World Market Inc.2,911$333K0.0%N/A0.007%
8/13/2026 Sanctuary Advisors LLC8,516$974K0.0%N/A0.020%
8/13/2026 Connor Clark & Lunn Investment Management Ltd.5,079$581K0.0%N/A0.012%
8/12/2026 Elevation Point Wealth Partners LLC2,160$247K0.0%N/A0.005%
8/12/2026 Northwestern Mutual Wealth Management Co.2,185$250K0.0%N/A0.005%
8/12/2026 Quantbot Technologies LP6,887$788K0.0%N/A0.016%
8/12/2026 Evolve Private Wealth LLC2,320$265K0.0%N/A0.005%
8/12/2026 Landscape Capital Management L.L.C.23,407$2.68M0.2%N/A0.054%
8/12/2026 Ieq Capital LLC17,385$1.99M0.0%N/A0.040%
8/12/2026 Callan Family Office LLC6,308$722K0.0%N/A0.014%
8/11/2026 Allworth Financial LP1,537$176K0.0%N/A0.004%
8/11/2026 B. Metzler seel. Sohn & Co. AG29,225$3.34M0.0%N/A0.067%
8/11/2026 Madison Asset Management LLC21,075$2.41M0.0%N/A0.048%
8/10/2026 NewEdge Wealth LLC16,880$1.93M0.0%N/A0.039%
8/8/2026 Summit Creek Advisors LLC41,949$4.80M1.6%N/A0.096%
Major Buy Alert Issued for September 30th (Ad)

Keith Kaplan has invested $17 million into his own AI research tools, building a platform now used by 180,000 people worldwide. His system has flagged a handful of stocks worth watching ahead of September 30th. See which stocks his AI research platform is flagging right now.tc pixel

See which stocks his AI research platform is flagging now
8/7/2026 BlackRock Inc.1,934,754$221.36M0.0%N/A4.432%
8/7/2026 Deutsche Bank AG4,577$524K0.0%N/A0.010%
8/7/2026 Simplicity Wealth LLC4,776$546K0.0%N/A0.011%
8/6/2026 Global Retirement Partners LLC659$75K0.0%N/A0.002%
8/6/2026 Bank of New York Mellon Corp182,328$20.86M0.0%N/A0.418%
8/6/2026 Focus Partners Advisor Solutions LLC2,435$279K0.0%N/A0.006%
8/6/2026 State of Wyoming911$104K0.0%N/A0.002%
8/3/2026 Oppenheimer Asset Management Inc.26,740$3.06M0.0%N/A0.061%
7/10/2026 Wasatch Advisors LP1,269,677$145.26M1.0%-40.2%2.865%
7/10/2026 Handelsbanken Fonder AB206,741$23.65M0.1%-18.1%0.467%
7/7/2026 GAMMA Investing LLC2,197$251K0.0%+19.1%0.005%
6/24/2026 Basecamp Wealth Advisors LLC185$25K0.0%+219.0%0.000%
6/3/2026 NewEdge Advisors LLC2,550$339K0.0%+539.1%0.006%
5/26/2026 Glenmede Trust Co. NA4,998$665K0.0%+13.4%0.011%
5/21/2026 Argent Capital Management LLC239,776$31.92M1.0%N/A0.541%
5/21/2026 Essential Partners LLC1,644$219K0.1%+20.8%0.004%
5/19/2026 Bank of America Corp DE280,204$37.30M0.0%-27.5%0.632%
5/19/2026Janus Henderson Group PLC410,854$54.69M0.0%+3.6%0.927%
5/19/2026 Bull Harbor Capital LLC4,050$539K0.1%N/A0.009%
5/19/2026 Arkadios Wealth Advisors3,182$424K0.0%-14.7%0.007%
5/18/2026 Amundi703,767$93.60M0.0%-0.8%1.588%
5/18/2026 EverSource Wealth Advisors LLC3,049$406K0.0%+63.6%0.007%
5/18/2026 California State Teachers Retirement System52,009$6.92M0.0%+22.6%0.117%
5/18/2026 Royal Bank of Canada187,574$24.97M0.0%+24.2%0.423%
5/18/2026 Empowered Funds LLC19,371$2.58M0.0%+5,682.4%0.044%
5/16/2026 The Manufacturers Life Insurance Company10,354$1.38M0.0%+13.6%0.023%
5/16/2026 Quantinno Capital Management LP37,359$4.97M0.0%+79.4%0.084%
5/16/2026 Lazard Asset Management LLC15,060$2.01M0.0%N/A0.034%
5/16/2026 Family Manage LLC1,684$224K0.0%N/A0.004%
5/15/2026 Waverly Advisors LLC3,062$408K0.0%N/A0.007%
5/14/2026 Public Employees Retirement System of Ohio56,723$7.55M0.0%+13.9%0.128%
5/14/2026 Sei Investments Co.254,882$33.93M0.0%+15.2%0.575%
5/14/2026 State of Wyoming619$82K0.0%+77.9%0.001%
5/13/2026 Cetera Investment Advisers14,185$1.89M0.0%-13.5%0.032%
5/13/2026 Aureus Asset Management LLC4,753$633K0.0%+9.8%0.011%
5/13/2026 NewEdge Wealth LLC18,016$2.40M0.0%-2.7%0.041%
5/13/2026 First Trust Advisors LP39,527$5.26M0.0%+310.5%0.089%
5/8/2026 PNC Financial Services Group Inc.4,686$624K0.0%+5.4%0.011%
5/8/2026 DUTCH ASSET Corp2,800$373K0.3%-8.2%0.006%
5/8/2026 Madison Asset Management LLC13,046$1.74M0.0%N/A0.029%
5/7/2026 WCM Investment Management LLC119,082$15.48M0.0%-4.3%0.269%
5/7/2026 Dimensional Fund Advisors LP805,336$107.19M0.0%+3.7%1.818%
5/7/2026 Parallel Advisors LLC652$87K0.0%+15.6%0.001%
5/7/2026 SEB Asset Management AB87,623$11.66M0.0%N/A0.198%
5/7/2026 Mediolanum International Funds Ltd41,800$5.43M0.1%-50.6%0.094%
5/6/2026 California Public Employees Retirement System85,921$11.44M0.0%+8.1%0.194%
5/6/2026 Bessemer Group Inc.373$50K0.0%+182.6%0.001%
5/6/2026 Allspring Global Investments Holdings LLC245,784$31.56M0.1%+12.3%0.555%
5/6/2026 Independent Financial Group LLC3,423$456K0.0%N/A0.008%
5/5/2026 Bank of New York Mellon Corp162,788$21.67M0.0%+2.2%0.367%
This little-known gold fund distributes cash every Friday (Ad)

Gold pays no dividends, no interest, no yield - it just sits there. Yet investors are reportedly collecting up to $1,127 a month from a little-known 15 dollar fund built around it. This fund turns gold's price swings into cash, paid out every single Friday.tc pixel

See exactly how this weekly-paying gold fund works today
5/5/2026 Illinois Municipal Retirement Fund37,547$5.00M0.1%+23.4%0.085%
5/5/2026 Sanctuary Advisors LLC12,866$1.71M0.0%+3.9%0.029%
5/4/2026 Principal Financial Group Inc.1,544$206K0.0%N/A0.003%
5/4/2026 Chicago Partners Investment Group LLC6,167$885K0.0%+302.3%0.014%
5/2/2026 International Assets Investment Management LLC1,253$161K0.0%-9.2%0.003%
5/2/2026 Associated Banc Corp1,527$203K0.0%N/A0.003%
5/1/2026 Citizens Financial Group Inc. RI2,030$270K0.0%N/A0.005%
5/1/2026 Fifth Third Bancorp143,574$19.11M0.0%+28,557.5%0.324%
5/1/2026 Sequoia Financial Advisors LLC2,103$280K0.0%-15.8%0.005%
4/30/2026 Equitable Trust Co.5,747$765K0.0%-17.1%0.013%


SITE Institutional Ownership - Frequently Asked Questions

During the previous two years, 412 institutional investors and hedge funds held shares of SiteOne Landscape Supply. The most heavily invested institutionals were California State Teachers Retirement System ($670.62M), Price T Rowe Associates Inc. MD ($556.39M), Vanguard Group Inc. ($499.43M), Kayne Anderson Rudnick Investment Management LLC ($385.15M), Bamco Inc. NY ($232.12M), BlackRock Inc. ($221.36M), and T. Rowe Price Investment Management Inc. ($210.78M).Learn more on SiteOne Landscape Supply's institutional investors.

Of the 355 institutional investors that purchased SiteOne Landscape Supply's stock in the last 24 months, the following investors and hedge funds have bought the highest volume of shares: California State Teachers Retirement System ($5.82M), Bamco Inc. NY ($2.56M), BlackRock Inc. ($1.93M), 59 North Capital Management LP ($1.66M), Amundi ($1.05M), AQR Capital Management LLC ($897.82K), and Price T Rowe Associates Inc. MD ($660.08K).

Institutional investors have bought a total of 21,363,741 shares in the last 24 months. This purchase volume represents approximately $2.56B in transactions.

Of the 163 institutional investors that sold SiteOne Landscape Supply's stock in the last 24 months, the following investors and hedge funds have sold the highest volume of shares: T. Rowe Price Investment Management Inc. ($1.78M), Wasatch Advisors LP ($941.12K), JARISLOWSKY FRASER Ltd ($419.48K), UBS Group AG ($249.41K), American Century Companies Inc. ($245.30K), Bank of America Corp DE ($220.90K), and 59 North Capital Management LP ($208.62K).

Institutional investors have sold a total of 7,851,414 shares in the last 24 months. This volume of shares sold represents approximately $981.42M in transactions.



Institutional ownership data for NYSE:SITE is compiled from quarterly 13F filings submitted to the U.S. Securities and Exchange Commission (SEC), with the most recent received on 8/27/2026. New 13F filings are added each quarter as they're published.
From Our Partners